Decoded Metar for KBFD (BRADFORD in PA, USA) (IATA:BFD) | Meteo·Mobile Aviation Weather
aviador You're here:

KBFD Decoded Metar

BRADFORD in PA, USA
Report Time2018-09-23 11:53:00
UTC Time2018-09-23 12:07:27
Flight Rules lifr LIFR
WindCalm
Visibility402 m
Phenomena:Fog
Clouds:N/A
Ceiling200 ft
Temp06°C (ISA -5)
Dew Point06°C (100% RH)
AAT5.1°C
QNH1024 hPa
Density Alt1,312 ft
Elevation2,123 ft
Report Wrong Elevation
Raw Report
KBFD 231153Z AUTO 00000KT M1/4SM FG VV002 06/06 A3023 RMK AO2
SLP243 T00610061 10072 20028 51002=

Extra information for KBFD:More info

Metar Taf Metar & Taf Last 4 Metars F.Rules Stats Wind Profile Meteogram Temp Stats Airport Information Weather charts Add Link Nearby VenuesMetar ALERT Operation Metar Decoded Social comments

AIRNAV info for KBFD